createdAt,value
2018-05-26T00:00:42.176Z,19.32
2018-05-26T00:01:42.152Z,19.28
2018-05-26T00:02:42.139Z,19.14
2018-05-26T00:03:42.089Z,19.16
2018-05-26T00:04:42.068Z,18.95
2018-05-26T00:05:42.008Z,18.94
2018-05-26T00:06:41.959Z,18.90
2018-05-26T00:07:41.931Z,18.81
2018-05-26T00:08:41.921Z,18.82
2018-05-26T00:09:41.855Z,18.70
2018-05-26T00:10:41.839Z,18.76
2018-05-26T00:11:41.808Z,18.69
2018-05-26T00:12:41.761Z,18.57
2018-05-26T00:13:41.711Z,18.55
2018-05-26T00:14:41.725Z,18.62
2018-05-26T00:15:41.671Z,18.55
2018-05-26T00:16:41.629Z,18.60
2018-05-26T00:17:41.574Z,18.45
2018-05-26T00:18:41.536Z,18.58
2018-05-26T00:19:41.493Z,18.54
2018-05-26T00:20:41.493Z,18.51
2018-05-26T00:21:41.423Z,18.57
2018-05-26T00:22:41.409Z,18.50
2018-05-26T00:23:41.353Z,18.47
2018-05-26T00:24:41.310Z,18.54
2018-05-26T00:25:41.284Z,18.57
2018-05-26T00:26:41.254Z,18.62
2018-05-26T00:27:41.190Z,18.58
2018-05-26T00:28:41.163Z,18.58
2018-05-26T00:29:41.125Z,18.60
2018-05-26T00:30:41.114Z,18.50
2018-05-26T00:31:41.071Z,18.48
2018-05-26T00:32:41.041Z,18.48
2018-05-26T00:33:40.978Z,18.54
2018-05-26T00:34:40.951Z,18.63
2018-05-26T00:35:40.933Z,18.55
2018-05-26T00:36:40.881Z,18.55
2018-05-26T00:37:40.838Z,18.57
2018-05-26T00:38:40.814Z,18.69
2018-05-26T00:39:40.750Z,18.66
2018-05-26T00:40:40.720Z,18.67
2018-05-26T00:41:40.688Z,18.70
2018-05-26T00:42:40.697Z,18.76
2018-05-26T00:43:40.604Z,18.70
2018-05-26T00:44:40.573Z,18.65
2018-05-26T00:45:40.569Z,18.66
2018-05-26T00:46:40.493Z,18.41
2018-05-26T00:47:50.239Z,18.37
2018-05-26T00:48:40.497Z,18.29
2018-05-26T00:49:40.391Z,18.27
2018-05-26T00:50:40.383Z,18.23
2018-05-26T00:51:40.337Z,18.27
2018-05-26T00:52:40.304Z,18.14
2018-05-26T00:53:40.252Z,18.10
2018-05-26T00:54:40.208Z,17.99
2018-05-26T00:55:40.205Z,17.92
2018-05-26T00:56:40.128Z,17.97
2018-05-26T00:57:40.091Z,17.86
2018-05-26T00:58:40.044Z,18.02
2018-05-26T00:59:40.042Z,17.87
2018-05-26T01:00:39.972Z,17.86
2018-05-26T01:01:39.950Z,17.90
2018-05-26T01:02:39.912Z,17.99
2018-05-26T01:03:39.855Z,17.82
2018-05-26T01:04:39.825Z,17.84
2018-05-26T01:05:39.825Z,17.82
2018-05-26T01:06:39.767Z,17.78
2018-05-26T01:07:39.727Z,17.75
2018-05-26T01:08:39.696Z,17.68
2018-05-26T01:09:39.638Z,17.68
2018-05-26T01:10:49.435Z,17.64
2018-05-26T01:11:39.571Z,17.66
2018-05-26T01:12:39.553Z,17.59
2018-05-26T01:13:39.515Z,17.59
2018-05-26T01:14:40.070Z,17.59
2018-05-26T01:15:39.431Z,17.48
2018-05-26T01:16:39.412Z,17.44
2018-05-26T01:17:39.335Z,17.52
2018-05-26T01:18:39.302Z,17.46
2018-05-26T01:19:39.268Z,17.48
2018-05-26T01:20:39.215Z,17.40
2018-05-26T01:21:39.215Z,17.37
2018-05-26T01:22:39.167Z,17.34
2018-05-26T01:23:39.121Z,17.26
2018-05-26T01:24:39.082Z,17.14
2018-05-26T01:25:39.057Z,17.18
2018-05-26T01:26:39.039Z,17.23
2018-05-26T01:27:38.971Z,17.18
2018-05-26T01:28:38.934Z,17.07
2018-05-26T01:29:38.898Z,17.04
2018-05-26T01:30:38.856Z,17.00
2018-05-26T01:31:38.856Z,17.01
2018-05-26T01:32:38.837Z,17.07
2018-05-26T01:33:38.742Z,17.04
2018-05-26T01:34:49.370Z,16.98
2018-05-26T01:35:38.706Z,17.00
2018-05-26T01:36:38.628Z,17.00
2018-05-26T01:37:38.611Z,16.97
2018-05-26T01:38:38.587Z,16.88
2018-05-26T01:39:38.508Z,16.83
2018-05-26T01:40:38.559Z,16.86
2018-05-26T01:41:38.471Z,16.91
2018-05-26T01:42:38.425Z,16.85
2018-05-26T01:43:38.392Z,16.89
2018-05-26T01:44:38.404Z,16.85
2018-05-26T01:45:38.298Z,16.79
2018-05-26T01:46:38.291Z,16.76
2018-05-26T01:47:38.315Z,16.75
2018-05-26T01:48:38.183Z,16.68
2018-05-26T01:49:38.296Z,16.68
2018-05-26T01:50:38.210Z,16.64
2018-05-26T01:51:38.145Z,16.64
2018-05-26T01:52:38.031Z,16.61
2018-05-26T01:53:38.003Z,16.61
2018-05-26T01:54:37.982Z,16.64
2018-05-26T01:55:37.950Z,16.57
2018-05-26T01:56:37.903Z,16.63
2018-05-26T01:57:48.778Z,16.56
2018-05-26T01:58:37.800Z,16.53
2018-05-26T01:59:37.769Z,16.46
2018-05-26T02:00:37.786Z,16.48
2018-05-26T02:01:37.731Z,16.48
2018-05-26T02:02:37.649Z,16.49
2018-05-26T02:03:37.619Z,16.41
2018-05-26T02:04:37.625Z,16.43
2018-05-26T02:05:37.633Z,16.43
2018-05-26T02:06:37.730Z,16.53
2018-05-26T02:07:37.454Z,16.53
2018-05-26T02:08:37.424Z,16.45
2018-05-26T02:09:37.380Z,16.45
2018-05-26T02:10:37.350Z,16.48
2018-05-26T02:11:37.340Z,16.50
2018-05-26T02:12:37.269Z,16.48
2018-05-26T02:13:37.237Z,16.50
2018-05-26T02:14:37.204Z,16.46
2018-05-26T02:15:37.153Z,16.39
2018-05-26T02:16:37.155Z,16.38
2018-05-26T02:17:37.087Z,16.43
2018-05-26T02:18:37.037Z,16.46
2018-05-26T02:19:36.998Z,16.48
2018-05-26T02:20:36.962Z,16.48
2018-05-26T02:21:46.857Z,16.49
2018-05-26T02:22:36.902Z,16.38
2018-05-26T02:23:36.880Z,16.52
2018-05-26T02:24:36.814Z,16.45
2018-05-26T02:25:36.775Z,16.43
2018-05-26T02:26:36.754Z,16.45
2018-05-26T02:27:36.741Z,16.42
2018-05-26T02:28:36.662Z,16.34
2018-05-26T02:29:36.665Z,16.39
2018-05-26T02:30:36.595Z,16.38
2018-05-26T02:31:36.545Z,16.33
2018-05-26T02:32:36.544Z,16.20
2018-05-26T02:33:36.534Z,16.27
2018-05-26T02:34:36.458Z,16.24
2018-05-26T02:35:36.414Z,16.17
2018-05-26T02:36:36.382Z,16.24
2018-05-26T02:37:36.325Z,16.17
2018-05-26T02:38:36.295Z,16.05
2018-05-26T02:39:36.285Z,16.09
2018-05-26T02:40:36.224Z,16.15
2018-05-26T02:41:36.186Z,16.07
2018-05-26T02:42:36.147Z,16.20
2018-05-26T02:43:36.095Z,16.12
2018-05-26T02:44:46.886Z,16.12
2018-05-26T02:45:36.024Z,16.15
2018-05-26T02:46:35.982Z,16.21
2018-05-26T02:47:35.959Z,16.21
2018-05-26T02:48:35.908Z,16.20
2018-05-26T02:49:35.865Z,16.11
2018-05-26T02:50:35.874Z,16.14
2018-05-26T02:51:35.819Z,16.07
2018-05-26T02:52:35.790Z,16.14
2018-05-26T02:53:35.740Z,16.15
2018-05-26T02:54:35.677Z,16.15
2018-05-26T02:55:35.634Z,16.15
2018-05-26T02:56:35.638Z,16.09
2018-05-26T02:57:35.566Z,16.02
2018-05-26T02:58:35.540Z,15.97
2018-05-26T02:59:35.498Z,16.00
2018-05-26T03:00:35.456Z,16.05
2018-05-26T03:01:35.419Z,15.92
2018-05-26T03:02:35.426Z,15.86
2018-05-26T03:03:35.365Z,15.92
2018-05-26T03:04:35.324Z,15.84
2018-05-26T03:05:35.274Z,15.89
2018-05-26T03:06:35.243Z,15.90
2018-05-26T03:07:35.200Z,15.84
2018-05-26T03:08:45.290Z,15.94
2018-05-26T03:09:35.102Z,15.89
2018-05-26T03:10:35.137Z,15.80
2018-05-26T03:11:35.032Z,15.86
2018-05-26T03:12:35.109Z,15.71
2018-05-26T03:13:35.016Z,15.87
2018-05-26T03:14:34.963Z,15.76
2018-05-26T03:15:34.885Z,15.80
2018-05-26T03:16:35.067Z,15.76
2018-05-26T03:17:34.802Z,15.83
2018-05-26T03:18:34.756Z,15.75
2018-05-26T03:19:34.755Z,15.78
2018-05-26T03:20:34.697Z,15.84
2018-05-26T03:21:34.654Z,15.82
2018-05-26T03:22:34.629Z,15.82
2018-05-26T03:23:34.591Z,15.72
2018-05-26T03:24:34.528Z,15.80
2018-05-26T03:25:34.512Z,15.68
2018-05-26T03:26:34.454Z,15.71
2018-05-26T03:27:34.414Z,15.71
2018-05-26T03:28:34.392Z,15.80
2018-05-26T03:29:34.355Z,15.80
2018-05-26T03:30:34.348Z,15.67
2018-05-26T03:31:45.486Z,15.75
2018-05-26T03:32:34.260Z,15.76
2018-05-26T03:33:34.216Z,15.82
2018-05-26T03:34:34.161Z,15.83
2018-05-26T03:35:34.119Z,15.75
2018-05-26T03:36:34.097Z,15.80
2018-05-26T03:37:34.041Z,15.86
2018-05-26T03:38:34.003Z,15.89
2018-05-26T03:39:33.974Z,15.86
2018-05-26T03:40:33.927Z,15.84
2018-05-26T03:41:33.910Z,15.94
2018-05-26T03:42:33.880Z,15.84
2018-05-26T03:43:33.810Z,16.00
2018-05-26T03:44:33.774Z,16.00
2018-05-26T03:45:33.737Z,15.97
2018-05-26T03:46:33.723Z,16.02
2018-05-26T03:47:33.697Z,16.00
2018-05-26T03:48:33.640Z,16.05
2018-05-26T03:49:33.581Z,16.08
2018-05-26T03:50:33.548Z,16.07
2018-05-26T03:51:33.519Z,16.07
2018-05-26T03:52:33.503Z,16.00
2018-05-26T03:53:33.433Z,16.07
2018-05-26T03:54:33.399Z,16.08
2018-05-26T03:55:43.454Z,16.21
2018-05-26T03:56:33.312Z,16.07
2018-05-26T03:57:33.283Z,16.11
2018-05-26T03:58:33.270Z,16.23
2018-05-26T03:59:33.196Z,16.23
2018-05-26T04:00:33.164Z,16.23
2018-05-26T04:01:33.135Z,16.33
2018-05-26T04:02:33.110Z,16.34
2018-05-26T04:03:33.066Z,16.35
2018-05-26T04:04:33.047Z,16.34
2018-05-26T04:05:32.969Z,16.41
2018-05-26T04:06:32.958Z,16.35
2018-05-26T04:07:32.897Z,16.43
2018-05-26T04:08:32.858Z,16.43
2018-05-26T04:09:32.880Z,16.49
2018-05-26T04:10:32.822Z,16.35
2018-05-26T04:11:32.775Z,16.42
2018-05-26T04:12:32.720Z,16.48
2018-05-26T04:13:32.674Z,16.41
2018-05-26T04:14:32.661Z,16.48
2018-05-26T04:15:32.674Z,16.49
2018-05-26T04:16:32.579Z,16.45
2018-05-26T04:17:42.987Z,16.56
2018-05-26T04:18:32.477Z,16.66
2018-05-26T04:19:32.450Z,16.66
2018-05-26T04:20:32.420Z,16.68
2018-05-26T04:21:32.408Z,16.73
2018-05-26T04:22:32.341Z,16.76
2018-05-26T04:23:32.291Z,16.89
2018-05-26T04:24:32.252Z,16.86
2018-05-26T04:25:32.214Z,16.98
2018-05-26T04:26:32.204Z,17.06
2018-05-26T04:27:32.172Z,16.96
2018-05-26T04:28:32.111Z,17.00
2018-05-26T04:29:32.060Z,17.07
2018-05-26T04:30:32.256Z,17.08
2018-05-26T04:31:32.008Z,17.12
2018-05-26T04:32:31.983Z,17.21
2018-05-26T04:33:31.945Z,17.18
2018-05-26T04:34:31.868Z,17.30
2018-05-26T04:35:31.840Z,17.37
2018-05-26T04:36:31.807Z,17.49
2018-05-26T04:37:31.762Z,17.70
2018-05-26T04:38:31.721Z,17.99
2018-05-26T04:39:31.725Z,18.48
2018-05-26T04:40:31.648Z,18.98
2018-05-26T04:41:43.052Z,19.39
2018-05-26T04:42:31.584Z,19.78
2018-05-26T04:43:31.585Z,20.05
2018-05-26T04:44:31.503Z,20.31
2018-05-26T04:45:31.490Z,20.73
2018-05-26T04:46:31.420Z,20.82
2018-05-26T04:47:31.390Z,21.27
2018-05-26T04:48:31.366Z,21.32
2018-05-26T04:49:31.402Z,21.72
2018-05-26T04:50:31.290Z,21.86
2018-05-26T04:51:31.275Z,22.17
2018-05-26T04:52:31.206Z,22.45
2018-05-26T04:53:31.164Z,22.51
2018-05-26T04:54:31.145Z,22.54
2018-05-26T04:55:31.102Z,22.61
2018-05-26T04:56:31.097Z,22.51
2018-05-26T04:57:31.039Z,22.46
2018-05-26T04:58:30.995Z,22.52
2018-05-26T04:59:30.939Z,22.64
2018-05-26T05:00:30.919Z,22.57
2018-05-26T05:01:30.927Z,22.68
2018-05-26T05:02:30.849Z,22.65
2018-05-26T05:03:30.839Z,22.92
2018-05-26T05:04:30.770Z,23.09
2018-05-26T05:05:42.209Z,23.35
2018-05-26T05:06:30.747Z,23.39
2018-05-26T05:07:30.710Z,23.60
2018-05-26T05:08:30.640Z,24.00
2018-05-26T05:09:30.590Z,24.16
2018-05-26T05:10:30.654Z,24.45
2018-05-26T05:11:30.536Z,24.45
2018-05-26T05:12:30.490Z,24.78
2018-05-26T05:13:30.488Z,24.90
2018-05-26T05:14:30.423Z,25.15
2018-05-26T05:15:30.416Z,25.46
2018-05-26T05:16:30.387Z,25.62
2018-05-26T05:17:30.325Z,25.90
2018-05-26T05:18:30.288Z,26.12
2018-05-26T05:19:30.269Z,26.35
2018-05-26T05:20:30.234Z,26.75
2018-05-26T05:21:30.213Z,26.87
2018-05-26T05:22:30.159Z,27.44
2018-05-26T05:23:30.147Z,27.54
2018-05-26T05:24:30.090Z,27.69
2018-05-26T05:25:30.052Z,28.14
2018-05-26T05:26:30.029Z,28.40
2018-05-26T05:27:40.286Z,28.68
2018-05-26T05:28:29.942Z,29.27
2018-05-26T05:29:29.987Z,28.95
2018-05-26T05:30:29.877Z,29.04
2018-05-26T05:31:29.842Z,29.52
2018-05-26T05:32:30.131Z,29.43
2018-05-26T05:33:29.897Z,29.15
2018-05-26T05:34:32.493Z,29.73
2018-05-26T05:35:30.133Z,30.11
2018-05-26T05:36:29.719Z,30.11
2018-05-26T05:37:29.685Z,30.01
2018-05-26T05:38:29.623Z,29.60
2018-05-26T05:39:29.605Z,29.74
2018-05-26T05:40:29.565Z,29.79
2018-05-26T05:41:29.529Z,29.64
2018-05-26T05:42:29.493Z,29.95
2018-05-26T05:43:29.470Z,30.04
2018-05-26T05:44:29.461Z,30.15
2018-05-26T05:45:29.398Z,30.22
2018-05-26T05:46:29.394Z,30.08
2018-05-26T05:47:29.345Z,30.01
2018-05-26T05:48:29.308Z,30.24
2018-05-26T05:49:29.294Z,30.38
2018-05-26T05:50:29.364Z,30.10
2018-05-26T05:51:42.131Z,29.94
2018-05-26T05:52:29.405Z,30.01
2018-05-26T05:53:29.227Z,30.16
2018-05-26T05:54:29.148Z,30.35
2018-05-26T05:55:30.678Z,30.57
2018-05-26T05:56:29.082Z,31.38
2018-05-26T05:57:29.026Z,31.73
2018-05-26T05:58:28.987Z,32.01
2018-05-26T05:59:28.961Z,31.88
2018-05-26T06:00:28.950Z,31.48
2018-05-26T06:01:28.931Z,31.46
2018-05-26T06:02:28.878Z,31.48
2018-05-26T06:03:28.854Z,31.51
2018-05-26T06:04:28.826Z,31.17
2018-05-26T06:05:28.796Z,30.86
2018-05-26T06:06:28.780Z,30.89
2018-05-26T06:07:28.737Z,30.84
2018-05-26T06:08:28.689Z,31.07
2018-05-26T06:09:28.667Z,31.58
2018-05-26T06:10:28.666Z,32.47
2018-05-26T06:11:28.641Z,33.21
2018-05-26T06:12:28.628Z,33.42
2018-05-26T06:13:28.556Z,32.82
2018-05-26T06:14:40.978Z,32.70
2018-05-26T06:15:28.543Z,32.89
2018-05-26T06:16:28.656Z,33.21
2018-05-26T06:17:28.433Z,33.66
2018-05-26T06:18:28.422Z,32.75
2018-05-26T06:19:28.356Z,32.40
2018-05-26T06:20:28.365Z,32.01
2018-05-26T06:21:28.342Z,32.14
2018-05-26T06:22:28.295Z,32.89
2018-05-26T06:23:28.307Z,32.81
2018-05-26T06:24:28.203Z,32.14
2018-05-26T06:25:28.183Z,32.56
2018-05-26T06:26:28.171Z,32.13
2018-05-26T06:27:28.133Z,32.48
2018-05-26T06:28:28.095Z,32.93
2018-05-26T06:29:28.101Z,33.22
2018-05-26T06:30:28.075Z,33.34
2018-05-26T06:31:28.036Z,33.45
2018-05-26T06:32:27.974Z,33.31
2018-05-26T06:33:40.576Z,33.26
2018-05-26T06:34:28.002Z,32.96
2018-05-26T06:35:30.146Z,33.29
2018-05-26T06:36:27.867Z,33.23
2018-05-26T06:37:27.813Z,33.06
2018-05-26T06:38:38.642Z,33.19
2018-05-26T06:39:27.768Z,32.57
2018-05-26T06:40:27.776Z,32.28
2018-05-26T06:41:27.715Z,32.66
2018-05-26T06:42:27.721Z,33.51
2018-05-26T06:43:27.678Z,33.34
2018-05-26T06:44:27.663Z,33.07
2018-05-26T06:45:27.592Z,33.14
2018-05-26T06:46:27.582Z,33.49
2018-05-26T06:47:27.547Z,33.72
2018-05-26T06:48:27.517Z,33.28
2018-05-26T06:49:27.485Z,33.42
2018-05-26T06:50:27.454Z,32.99
2018-05-26T06:51:27.445Z,32.92
2018-05-26T06:52:27.438Z,33.75
2018-05-26T06:53:27.372Z,32.74
2018-05-26T06:54:27.339Z,33.31
2018-05-26T06:55:27.300Z,33.60
2018-05-26T06:56:27.282Z,33.59
2018-05-26T06:57:27.255Z,34.34
2018-05-26T06:58:27.263Z,34.00
2018-05-26T06:59:27.196Z,33.82
2018-05-26T07:00:27.158Z,33.44
2018-05-26T07:01:36.751Z,33.06
2018-05-26T07:02:27.129Z,33.23
2018-05-26T07:03:27.095Z,33.47
2018-05-26T07:04:27.083Z,34.10
2018-05-26T07:05:27.003Z,33.60
2018-05-26T07:06:26.986Z,33.45
2018-05-26T07:07:26.987Z,32.55
2018-05-26T07:08:26.919Z,32.45
2018-05-26T07:09:26.895Z,33.00
2018-05-26T07:10:26.902Z,33.29
2018-05-26T07:11:26.882Z,33.41
2018-05-26T07:12:26.818Z,33.29
2018-05-26T07:13:26.788Z,32.89
2018-05-26T07:14:26.793Z,33.21
2018-05-26T07:15:26.729Z,33.09
2018-05-26T07:16:26.737Z,33.38
2018-05-26T07:17:26.663Z,34.10
2018-05-26T07:18:26.642Z,33.84
2018-05-26T07:19:26.619Z,32.52
2018-05-26T07:20:26.612Z,32.00
2018-05-26T07:21:26.586Z,32.13
2018-05-26T07:22:26.523Z,32.21
2018-05-26T07:23:26.503Z,32.69
2018-05-26T07:24:26.495Z,33.34
2018-05-26T07:25:36.794Z,33.84
2018-05-26T07:26:26.422Z,33.42
2018-05-26T07:27:26.409Z,32.81
2018-05-26T07:28:26.395Z,32.51
2018-05-26T07:29:28.017Z,33.07
2018-05-26T07:30:26.323Z,31.80
2018-05-26T07:31:26.269Z,31.36
2018-05-26T07:32:26.245Z,31.29
2018-05-26T07:33:26.205Z,31.25
2018-05-26T07:34:26.192Z,32.07
2018-05-26T07:35:26.188Z,32.52
2018-05-26T07:36:26.129Z,33.07
2018-05-26T07:37:26.108Z,32.60
2018-05-26T07:38:26.088Z,33.19
2018-05-26T07:39:26.047Z,33.66
2018-05-26T07:40:26.038Z,33.57
2018-05-26T07:41:26.027Z,33.69
2018-05-26T07:42:25.963Z,33.32
2018-05-26T07:43:25.940Z,33.50
2018-05-26T07:44:25.940Z,33.73
2018-05-26T07:45:25.875Z,34.03
2018-05-26T07:46:25.837Z,33.82
2018-05-26T07:47:25.851Z,33.94
2018-05-26T07:48:25.789Z,33.18
2018-05-26T07:49:25.767Z,31.91
2018-05-26T07:50:25.733Z,31.72
2018-05-26T07:51:25.738Z,32.32
2018-05-26T07:52:25.673Z,32.94
2018-05-26T07:53:25.669Z,33.51
2018-05-26T07:54:25.647Z,33.28
2018-05-26T07:55:25.592Z,33.15
2018-05-26T07:56:25.583Z,33.56
2018-05-26T07:57:25.538Z,33.93
2018-05-26T07:58:25.625Z,34.24
2018-05-26T07:59:25.474Z,34.06
2018-05-26T08:00:25.499Z,34.16
2018-05-26T08:01:25.446Z,34.35
2018-05-26T08:02:25.405Z,33.97
2018-05-26T08:03:25.408Z,33.34
2018-05-26T08:04:25.352Z,32.55
2018-05-26T08:05:25.315Z,32.77
2018-05-26T08:06:25.310Z,32.19
2018-05-26T08:07:25.273Z,31.95
2018-05-26T08:08:25.246Z,31.46
2018-05-26T08:09:25.263Z,32.03
2018-05-26T08:10:25.184Z,32.35
2018-05-26T08:11:25.149Z,32.13
2018-05-26T08:12:25.127Z,32.01
2018-05-26T08:13:25.104Z,31.34
2018-05-26T08:14:25.073Z,31.41
2018-05-26T08:15:25.077Z,31.29
2018-05-26T08:16:25.017Z,30.91
2018-05-26T08:17:25.044Z,30.83
2018-05-26T08:18:24.960Z,31.29
2018-05-26T08:19:24.927Z,31.66
2018-05-26T08:20:24.916Z,32.01
2018-05-26T08:21:24.918Z,32.38
2018-05-26T08:22:24.858Z,31.29
2018-05-26T08:23:24.861Z,31.47
2018-05-26T08:24:24.791Z,31.41
2018-05-26T08:25:24.776Z,31.61
2018-05-26T08:26:24.752Z,31.31
2018-05-26T08:27:24.773Z,31.53
2018-05-26T08:28:24.688Z,31.86
2018-05-26T08:29:24.656Z,31.53
2018-05-26T08:30:24.641Z,32.07
2018-05-26T08:31:24.607Z,32.62
2018-05-26T08:32:24.588Z,32.65
2018-05-26T08:33:24.593Z,32.18
2018-05-26T08:34:24.527Z,32.30
2018-05-26T08:35:24.533Z,32.50
2018-05-26T08:36:24.470Z,31.25
2018-05-26T08:37:24.440Z,31.01
2018-05-26T08:38:24.448Z,31.06
2018-05-26T08:39:24.389Z,30.97
2018-05-26T08:40:24.369Z,30.86
2018-05-26T08:41:24.346Z,31.50
2018-05-26T08:42:24.308Z,32.11
2018-05-26T08:43:24.291Z,31.99
2018-05-26T08:44:24.307Z,31.48
2018-05-26T08:45:24.247Z,31.38
2018-05-26T08:46:24.212Z,30.84
2018-05-26T08:47:24.189Z,30.51
2018-05-26T08:48:24.170Z,30.54
2018-05-26T08:49:24.128Z,30.60
2018-05-26T08:50:24.132Z,31.01
2018-05-26T08:51:24.082Z,30.65
2018-05-26T08:52:24.071Z,29.98
2018-05-26T08:53:24.026Z,30.20
2018-05-26T08:54:23.996Z,30.39
2018-05-26T08:55:23.971Z,30.77
2018-05-26T08:56:23.980Z,30.94
2018-05-26T08:57:23.930Z,30.69
2018-05-26T08:58:23.891Z,30.94
2018-05-26T08:59:23.876Z,31.21
2018-05-26T09:00:23.849Z,31.20
2018-05-26T09:01:23.801Z,31.29
2018-05-26T09:02:23.812Z,30.80
2018-05-26T09:03:23.750Z,30.42
2018-05-26T09:04:23.725Z,29.97
2018-05-26T09:05:23.703Z,30.04
2018-05-26T09:06:23.690Z,30.11
2018-05-26T09:07:23.650Z,30.53
2018-05-26T09:08:23.643Z,30.11
2018-05-26T09:09:23.590Z,30.54
2018-05-26T09:10:23.564Z,31.20
2018-05-26T09:11:23.539Z,31.04
2018-05-26T09:12:23.516Z,30.92
2018-05-26T09:13:23.501Z,30.89
2018-05-26T09:14:23.486Z,31.14
2018-05-26T09:15:23.456Z,30.64
2018-05-26T09:16:33.839Z,30.46
2018-05-26T09:17:23.394Z,31.09
2018-05-26T09:18:23.360Z,31.12
2018-05-26T09:19:23.346Z,30.51
2018-05-26T09:20:23.365Z,30.22
2018-05-26T09:21:23.289Z,30.22
2018-05-26T09:22:23.256Z,30.49
2018-05-26T09:23:33.402Z,30.89
2018-05-26T09:24:23.202Z,31.31
2018-05-26T09:25:23.244Z,31.61
2018-05-26T09:26:23.216Z,31.62
2018-05-26T09:27:23.126Z,31.72
2018-05-26T09:28:23.086Z,32.01
2018-05-26T09:29:23.059Z,32.32
2018-05-26T09:30:23.036Z,32.65
2018-05-26T09:31:23.029Z,32.75
2018-05-26T09:32:23.039Z,32.35
2018-05-26T09:33:22.965Z,30.99
2018-05-26T09:34:22.949Z,30.84
2018-05-26T09:35:22.910Z,30.89
2018-05-26T09:36:22.879Z,31.23
2018-05-26T09:37:22.864Z,30.86
2018-05-26T09:38:22.853Z,31.17
2018-05-26T09:39:22.814Z,31.44
2018-05-26T09:40:22.783Z,31.62
2018-05-26T09:41:22.760Z,31.95
2018-05-26T09:42:22.732Z,31.86
2018-05-26T09:43:22.758Z,31.96
2018-05-26T09:44:22.719Z,32.33
2018-05-26T09:45:22.677Z,32.69
2018-05-26T09:46:30.925Z,32.15
2018-05-26T09:47:23.078Z,31.54
2018-05-26T09:48:22.981Z,31.07
2018-05-26T09:49:22.685Z,30.94
2018-05-26T09:50:22.591Z,30.76
2018-05-26T09:51:22.556Z,31.16
2018-05-26T09:52:22.528Z,31.47
2018-05-26T09:53:22.472Z,31.32
2018-05-26T09:54:22.429Z,30.98
2018-05-26T09:55:32.472Z,30.70
2018-05-26T09:56:22.403Z,30.54
2018-05-26T09:57:22.368Z,30.91
2018-05-26T09:58:25.338Z,31.19
2018-05-26T09:59:22.536Z,31.32
2018-05-26T10:00:22.296Z,31.26
2018-05-26T10:01:22.297Z,30.84
2018-05-26T10:02:22.247Z,30.35
2018-05-26T10:03:22.220Z,29.98
2018-05-26T10:04:22.226Z,29.85
2018-05-26T10:05:22.189Z,29.30
2018-05-26T10:06:22.139Z,29.08
2018-05-26T10:07:22.152Z,29.16
2018-05-26T10:08:22.106Z,29.33
2018-05-26T10:09:22.131Z,29.76
2018-05-26T10:10:32.453Z,30.31
2018-05-26T10:11:22.021Z,30.64
2018-05-26T10:12:22.005Z,30.89
2018-05-26T10:13:21.998Z,30.83
2018-05-26T10:14:21.937Z,30.84
2018-05-26T10:15:21.920Z,30.79
2018-05-26T10:16:21.896Z,30.73
2018-05-26T10:17:21.864Z,30.82
2018-05-26T10:18:21.870Z,30.97
2018-05-26T10:19:21.833Z,31.16
2018-05-26T10:20:21.790Z,31.26
2018-05-26T10:21:21.771Z,31.38
2018-05-26T10:22:21.771Z,31.78
2018-05-26T10:23:21.739Z,31.99
2018-05-26T10:24:21.729Z,32.33
2018-05-26T10:25:21.690Z,32.33
2018-05-26T10:26:21.660Z,31.34
2018-05-26T10:27:21.644Z,31.32
2018-05-26T10:28:21.636Z,31.61
2018-05-26T10:29:21.587Z,31.34
2018-05-26T10:30:21.556Z,31.47
2018-05-26T10:31:21.532Z,31.12
2018-05-26T10:32:21.517Z,30.94
2018-05-26T10:33:31.511Z,31.12
2018-05-26T10:34:21.482Z,30.88
2018-05-26T10:35:21.430Z,30.84
2018-05-26T10:36:21.412Z,30.89
2018-05-26T10:37:21.427Z,30.88
2018-05-26T10:38:21.361Z,30.98
2018-05-26T10:39:21.366Z,31.07
2018-05-26T10:40:21.334Z,31.36
2018-05-26T10:41:21.305Z,31.32
2018-05-26T10:42:21.294Z,31.51
2018-05-26T10:43:21.253Z,31.16
2018-05-26T10:44:21.266Z,30.73
2018-05-26T10:45:21.226Z,30.65
2018-05-26T10:46:21.200Z,30.77
2018-05-26T10:47:21.177Z,30.97
2018-05-26T10:48:21.142Z,31.01
2018-05-26T10:49:21.110Z,31.14
2018-05-26T10:50:21.124Z,31.56
2018-05-26T10:51:21.079Z,31.20
2018-05-26T10:52:21.044Z,31.41
2018-05-26T10:53:21.016Z,31.19
2018-05-26T10:54:21.024Z,30.69
2018-05-26T10:55:31.045Z,30.77
2018-05-26T10:56:21.261Z,30.91
2018-05-26T10:57:20.960Z,30.86
2018-05-26T10:58:23.569Z,30.26
2018-05-26T10:59:20.890Z,30.11
2018-05-26T11:00:20.859Z,30.05
2018-05-26T11:01:20.872Z,30.00
2018-05-26T11:02:20.808Z,30.01
2018-05-26T11:03:20.804Z,30.04
2018-05-26T11:04:20.818Z,29.73
2018-05-26T11:05:20.764Z,29.78
2018-05-26T11:06:20.741Z,29.92
2018-05-26T11:07:20.774Z,29.94
2018-05-26T11:08:20.703Z,30.22
2018-05-26T11:09:20.659Z,30.65
2018-05-26T11:10:20.654Z,30.77
2018-05-26T11:11:20.619Z,30.70
2018-05-26T11:12:20.686Z,30.84
2018-05-26T11:13:20.588Z,30.10
2018-05-26T11:14:20.550Z,30.02
2018-05-26T11:15:20.508Z,30.15
2018-05-26T11:16:20.570Z,30.01
2018-05-26T11:17:20.460Z,30.10
2018-05-26T11:18:20.458Z,29.86
2018-05-26T11:19:20.430Z,29.64
2018-05-26T11:20:20.396Z,29.61
2018-05-26T11:21:20.372Z,29.61
2018-05-26T11:22:20.359Z,29.57
2018-05-26T11:23:20.327Z,29.95
2018-05-26T11:24:20.388Z,30.24
2018-05-26T11:25:20.274Z,30.34
2018-05-26T11:26:20.264Z,30.58
2018-05-26T11:27:20.214Z,30.24
2018-05-26T11:28:20.194Z,30.35
2018-05-26T11:29:20.170Z,30.55
2018-05-26T11:30:20.200Z,30.79
2018-05-26T11:31:20.131Z,30.67
2018-05-26T11:32:20.107Z,30.88
2018-05-26T11:33:20.098Z,30.89
2018-05-26T11:34:20.071Z,30.95
2018-05-26T11:35:20.047Z,30.89
2018-05-26T11:36:20.001Z,30.80
2018-05-26T11:37:20.010Z,30.84
2018-05-26T11:38:19.974Z,30.55
2018-05-26T11:39:19.951Z,30.72
2018-05-26T11:40:19.937Z,30.76
2018-05-26T11:41:19.881Z,30.54
2018-05-26T11:42:19.873Z,30.65
2018-05-26T11:43:19.876Z,30.69
2018-05-26T11:44:34.076Z,30.83
2018-05-26T11:45:19.841Z,30.94
2018-05-26T11:46:21.919Z,30.99
2018-05-26T11:47:19.883Z,31.07
2018-05-26T11:48:19.783Z,31.12
2018-05-26T11:49:19.720Z,30.75
2018-05-26T11:50:19.698Z,30.83
2018-05-26T11:51:19.700Z,30.64
2018-05-26T11:52:19.629Z,30.38
2018-05-26T11:53:19.656Z,29.61
2018-05-26T11:54:31.109Z,29.55
2018-05-26T11:55:19.569Z,29.65
2018-05-26T11:56:19.583Z,29.76
2018-05-26T11:57:20.822Z,29.74
2018-05-26T11:58:19.492Z,30.16
2018-05-26T11:59:19.496Z,30.11
2018-05-26T12:00:19.454Z,29.94
2018-05-26T12:01:19.429Z,30.20
2018-05-26T12:02:19.430Z,30.27
2018-05-26T12:03:19.373Z,30.43
2018-05-26T12:04:19.346Z,30.23
2018-05-26T12:05:19.337Z,30.34
2018-05-26T12:06:19.330Z,30.46
2018-05-26T12:07:19.346Z,30.34
2018-05-26T12:08:30.596Z,30.27
2018-05-26T12:09:19.231Z,30.27
2018-05-26T12:10:19.232Z,30.61
2018-05-26T12:11:19.195Z,30.84
2018-05-26T12:12:19.163Z,30.89
2018-05-26T12:13:19.168Z,30.89
2018-05-26T12:14:19.133Z,31.09
2018-05-26T12:15:19.108Z,31.41
2018-05-26T12:16:30.149Z,31.61
2018-05-26T12:17:19.049Z,31.57
2018-05-26T12:18:19.026Z,31.72
2018-05-26T12:19:19.126Z,31.58
2018-05-26T12:20:19.580Z,31.80
2018-05-26T12:21:18.974Z,31.81
2018-05-26T12:22:18.950Z,31.56
2018-05-26T12:23:18.923Z,31.43
2018-05-26T12:24:18.950Z,31.34
2018-05-26T12:25:18.894Z,31.14
2018-05-26T12:26:18.881Z,31.28
2018-05-26T12:27:18.853Z,31.01
2018-05-26T12:28:18.827Z,31.12
2018-05-26T12:29:18.829Z,31.10
2018-05-26T12:30:18.822Z,30.91
2018-05-26T12:31:18.786Z,30.62
2018-05-26T12:32:18.750Z,30.46
2018-05-26T12:33:18.732Z,30.26
2018-05-26T12:34:18.711Z,30.53
2018-05-26T12:35:18.724Z,30.51
2018-05-26T12:36:18.661Z,30.76
2018-05-26T12:37:18.672Z,30.84
2018-05-26T12:38:18.642Z,30.83
2018-05-26T12:39:18.605Z,30.70
2018-05-26T12:40:18.577Z,30.43
2018-05-26T12:41:18.605Z,30.37
2018-05-26T12:42:18.523Z,29.79
2018-05-26T12:43:18.503Z,29.64
2018-05-26T12:44:18.474Z,29.79
2018-05-26T12:45:18.524Z,29.90
2018-05-26T12:46:18.477Z,30.23
2018-05-26T12:47:18.419Z,30.31
2018-05-26T12:48:18.393Z,30.64
2018-05-26T12:49:18.371Z,30.80
2018-05-26T12:50:18.384Z,30.92
2018-05-26T12:51:18.330Z,30.83
2018-05-26T12:52:18.394Z,30.89